Time;durP1;ratioP1;P1;durP2;ratioP2;P2;SDS_P1;SDS_P2;PMS_P1;PMS_P2;Temp;Humidity;BMP_temperature;BMP_pressure;BME280_temperature;BME280_humidity;BME280_pressure;Samples;Min_cycle;Max_cycle;Signal;HPM_P1;HPM_P2
2021/12/03 00:02:16;;;;;;;;;;;19.40;40.70;;;;;;4991339;28;20485;-73
2021/12/03 00:04:42;;;;;;;;;;;19.40;40.70;;;;;;4991577;28;19928;-73
2021/12/03 00:07:07;;;;;;;;;;;19.40;40.70;;;;;;4992093;28;20353;-73
2021/12/03 00:09:36;;;;;;;;;;;19.40;40.70;;;;;;4992676;28;19983;-72
2021/12/03 00:12:02;;;;;;;;;;;19.40;40.70;;;;;;4975502;28;19964;-73
2021/12/03 00:14:27;;;;;;;;;;;19.40;40.70;;;;;;4992373;28;20341;-73
2021/12/03 00:16:53;;;;;;;;;;;19.40;40.70;;;;;;5007756;28;20052;-73
2021/12/03 00:19:18;;;;;;;;;;;19.40;40.70;;;;;;4991667;28;19913;-73
2021/12/03 00:21:44;;;;;;;;;;;19.40;40.70;;;;;;4991525;28;19930;-74
2021/12/03 00:24:09;;;;;;;;;;;19.40;40.70;;;;;;4991237;28;19917;-73
2021/12/03 00:26:35;;;;;;;;;;;19.40;40.80;;;;;;4992949;28;19914;-73
2021/12/03 00:29:00;;;;;;;;;;;19.30;40.80;;;;;;4991294;28;20419;-72
2021/12/03 00:31:25;;;;;;;;;;;19.40;40.80;;;;;;4991209;28;19914;-72
2021/12/03 00:33:51;;;;;;;;;;;19.30;40.70;;;;;;4992790;28;19913;-72
2021/12/03 00:36:16;;;;;;;;;;;19.40;40.80;;;;;;4991751;28;19953;-73
2021/12/03 00:38:44;;;;;;;;;;;19.40;40.80;;;;;;4974837;28;19914;-73
2021/12/03 00:41:12;;;;;;;;;;;19.30;40.70;;;;;;4970033;28;20365;-73
2021/12/03 00:43:43;;;;;;;;;;;19.30;40.70;;;;;;4990928;28;19973;-73
2021/12/03 00:46:10;;;;;;;;;;;19.30;40.80;;;;;;4993299;28;19913;-74
2021/12/03 00:48:36;;;;;;;;;;;19.30;40.80;;;;;;4991264;28;20259;-74
2021/12/03 00:51:01;;;;;;;;;;;19.30;40.90;;;;;;4991334;28;19910;-72
2021/12/03 00:53:27;;;;;;;;;;;19.30;40.90;;;;;;4990566;28;19932;-73
2021/12/03 00:55:52;;;;;;;;;;;19.30;40.90;;;;;;4991454;28;19910;-73
2021/12/03 00:58:17;;;;;;;;;;;19.30;40.80;;;;;;4991927;28;19921;-73
2021/12/03 01:00:43;;;;;;;;;;;19.40;40.90;;;;;;5007631;28;19909;-73
2021/12/03 01:03:08;;;;;;;;;;;19.40;40.80;;;;;;4992820;28;20446;-73
2021/12/03 01:05:34;;;;;;;;;;;19.40;40.70;;;;;;5001744;28;20338;-73
2021/12/03 01:07:59;;;;;;;;;;;19.40;40.70;;;;;;4994812;28;20049;-72
2021/12/03 01:10:25;;;;;;;;;;;19.40;40.70;;;;;;4996010;28;19914;-73
2021/12/03 01:12:50;;;;;;;;;;;19.30;40.70;;;;;;4994713;28;19933;-73
2021/12/03 01:15:20;;;;;;;;;;;19.30;40.80;;;;;;4994410;28;19914;-73
2021/12/03 01:17:45;;;;;;;;;;;19.30;40.80;;;;;;4995977;28;19953;-73
2021/12/03 01:20:11;;;;;;;;;;;19.30;40.70;;;;;;4994902;28;19987;-73
2021/12/03 01:22:37;;;;;;;;;;;19.30;40.70;;;;;;4978641;28;19956;-73
2021/12/03 01:25:03;;;;;;;;;;;19.30;40.70;;;;;;4994537;28;19924;-73
2021/12/03 01:27:29;;;;;;;;;;;19.30;40.70;;;;;;4978033;28;20376;-72
2021/12/03 01:29:55;;;;;;;;;;;19.30;40.70;;;;;;4994782;28;20456;-73
2021/12/03 01:32:21;;;;;;;;;;;19.30;40.70;;;;;;5000625;28;20013;-73
2021/12/03 01:34:46;;;;;;;;;;;19.30;40.70;;;;;;4995658;28;20008;-73
2021/12/03 01:37:11;;;;;;;;;;;19.30;40.70;;;;;;4977939;28;19921;-73
2021/12/03 01:39:37;;;;;;;;;;;19.30;40.70;;;;;;4994384;28;19921;-73
2021/12/03 01:42:02;;;;;;;;;;;19.30;40.80;;;;;;4995276;28;19918;-73
2021/12/03 01:44:28;;;;;;;;;;;19.20;40.70;;;;;;4994461;28;20036;-73
2021/12/03 01:46:54;;;;;;;;;;;19.20;40.70;;;;;;4995624;28;19918;-73
2021/12/03 01:49:19;;;;;;;;;;;19.30;40.70;;;;;;4994393;28;20008;-73
2021/12/03 01:51:45;;;;;;;;;;;19.30;40.60;;;;;;4994205;28;19918;-73
2021/12/03 01:54:10;;;;;;;;;;;19.30;40.60;;;;;;4994107;28;19929;-73
2021/12/03 01:56:37;;;;;;;;;;;19.30;40.60;;;;;;4994302;28;20000;-72
2021/12/03 01:59:03;;;;;;;;;;;19.30;40.60;;;;;;4993956;28;19949;-73
2021/12/03 02:01:28;;;;;;;;;;;19.30;40.60;;;;;;4995378;28;20346;-73
2021/12/03 02:03:54;;;;;;;;;;;19.30;41.20;;;;;;4994151;28;19914;-73
2021/12/03 02:06:20;;;;;;;;;;;19.30;40.50;;;;;;4993624;28;20025;-73
2021/12/03 02:08:46;;;;;;;;;;;19.30;40.60;;;;;;4992898;28;19918;-74
2021/12/03 02:11:11;;;;;;;;;;;19.30;40.60;;;;;;5010620;28;19913;-73
2021/12/03 02:13:37;;;;;;;;;;;19.30;40.60;;;;;;4996414;28;19980;-72
2021/12/03 02:16:02;;;;;;;;;;;19.20;40.60;;;;;;4993968;28;19910;-72
2021/12/03 02:18:28;;;;;;;;;;;19.20;40.60;;;;;;4992044;28;20001;-73
2021/12/03 02:20:53;;;;;;;;;;;19.20;40.70;;;;;;4995191;28;19910;-73
2021/12/03 02:23:19;;;;;;;;;;;19.20;40.70;;;;;;4993342;28;19921;-72
2021/12/03 02:25:44;;;;;;;;;;;19.20;40.70;;;;;;4977337;28;19914;-74
2021/12/03 02:28:10;;;;;;;;;;;19.20;40.60;;;;;;5001103;28;19953;-73
2021/12/03 02:30:36;;;;;;;;;;;19.30;40.60;;;;;;4997309;28;20001;-73
2021/12/03 02:33:01;;;;;;;;;;;19.40;40.40;;;;;;4989248;28;19980;-73
2021/12/03 02:35:27;;;;;;;;;;;19.50;40.30;;;;;;4995528;28;19914;-72
2021/12/03 02:37:52;;;;;;;;;;;19.60;40.00;;;;;;4997510;28;19925;-72
2021/12/03 02:40:18;;;;;;;;;;;19.70;39.90;;;;;;4994362;28;20378;-73
2021/12/03 02:42:43;;;;;;;;;;;19.80;39.60;;;;;;4993132;28;19921;-73
2021/12/03 02:45:09;;;;;;;;;;;19.90;39.50;;;;;;4993211;28;19921;-73
2021/12/03 02:47:35;;;;;;;;;;;20.10;39.50;;;;;;4994459;28;19910;-73
2021/12/03 02:50:00;;;;;;;;;;;20.20;39.30;;;;;;4993270;28;19953;-73
2021/12/03 02:52:26;;;;;;;;;;;20.20;39.10;;;;;;4992795;28;19957;-74
2021/12/03 02:54:51;;;;;;;;;;;20.30;39.10;;;;;;4992631;28;19933;-73
2021/12/03 02:57:16;;;;;;;;;;;20.40;39.10;;;;;;5003817;28;19924;-73
2021/12/03 02:59:42;;;;;;;;;;;20.40;39.00;;;;;;4966345;28;19933;-73
2021/12/03 03:02:07;;;;;;;;;;;20.30;39.00;;;;;;4993138;28;19925;-73
2021/12/03 03:04:33;;;;;;;;;;;20.30;39.10;;;;;;4992900;28;19968;-72
2021/12/03 03:06:59;;;;;;;;;;;20.30;39.20;;;;;;4992109;28;20373;-73
2021/12/03 03:09:25;;;;;;;;;;;20.20;39.10;;;;;;4996332;28;19914;-73
2021/12/03 03:11:51;;;;;;;;;;;20.20;39.20;;;;;;4992012;28;20008;-73
2021/12/03 03:14:16;;;;;;;;;;;20.20;39.20;;;;;;4993958;28;20370;-73
2021/12/03 03:16:42;;;;;;;;;;;20.20;39.20;;;;;;4994002;28;20380;-73
2021/12/03 03:19:08;;;;;;;;;;;20.20;39.10;;;;;;5002060;28;20441;-73
2021/12/03 03:21:34;;;;;;;;;;;20.20;39.30;;;;;;4992571;28;19917;-73
2021/12/03 03:23:59;;;;;;;;;;;20.20;39.30;;;;;;4992132;28;20062;-73
2021/12/03 03:26:24;;;;;;;;;;;20.10;39.20;;;;;;4992389;28;19968;-74
2021/12/03 03:28:50;;;;;;;;;;;20.10;39.20;;;;;;4975915;28;19913;-73
2021/12/03 03:31:15;;;;;;;;;;;20.10;39.30;;;;;;4983743;28;19915;-74
2021/12/03 03:33:41;;;;;;;;;;;20.10;39.40;;;;;;4992205;28;19929;-74
2021/12/03 03:36:06;;;;;;;;;;;20.00;39.40;;;;;;4992396;28;19914;-74
2021/12/03 03:38:32;;;;;;;;;;;20.00;39.50;;;;;;4975939;28;19910;-73
2021/12/03 03:40:57;;;;;;;;;;;20.00;39.60;;;;;;4996874;28;19918;-73
2021/12/03 03:43:23;;;;;;;;;;;19.90;39.60;;;;;;4992617;28;19925;-73
2021/12/03 03:45:49;;;;;;;;;;;19.90;39.70;;;;;;4992360;28;19925;-73
2021/12/03 03:48:14;;;;;;;;;;;19.90;39.80;;;;;;4991325;28;19914;-73
2021/12/03 03:50:40;;;;;;;;;;;19.90;39.80;;;;;;4992128;28;20376;-74
2021/12/03 03:53:05;;;;;;;;;;;19.90;39.80;;;;;;4991644;28;19918;-74
2021/12/03 03:55:32;;;;;;;;;;;19.90;39.70;;;;;;4990866;28;19921;-73
2021/12/03 03:57:58;;;;;;;;;;;19.90;39.70;;;;;;4975587;28;19914;-73
2021/12/03 04:00:28;;;;;;;;;;;19.90;39.60;;;;;;4992958;28;19913;-73
2021/12/03 04:02:54;;;;;;;;;;;19.90;39.60;;;;;;5002186;28;20417;-73
2021/12/03 04:05:19;;;;;;;;;;;19.90;39.50;;;;;;4989305;28;19910;-73
2021/12/03 04:07:45;;;;;;;;;;;19.90;39.50;;;;;;4994814;28;19929;-74
2021/12/03 04:10:10;;;;;;;;;;;19.90;39.40;;;;;;4998398;28;20274;-73
2021/12/03 04:12:36;;;;;;;;;;;19.90;39.30;;;;;;4991036;28;19949;-74
2021/12/03 04:15:01;;;;;;;;;;;20.00;39.40;;;;;;4992071;28;19968;-73
2021/12/03 04:17:27;;;;;;;;;;;20.00;39.30;;;;;;4976938;28;19918;-73
2021/12/03 04:19:52;;;;;;;;;;;20.00;39.30;;;;;;5005825;28;20005;-73
2021/12/03 04:22:23;;;;;;;;;;;20.00;39.30;;;;;;4991080;28;19932;-75
2021/12/03 04:24:48;;;;;;;;;;;20.00;39.20;;;;;;4991427;28;19917;-74
2021/12/03 04:27:14;;;;;;;;;;;20.00;39.10;;;;;;4992228;28;19924;-74
2021/12/03 04:29:39;;;;;;;;;;;20.00;39.10;;;;;;4992067;28;19965;-74
2021/12/03 04:32:05;;;;;;;;;;;20.00;39.00;;;;;;4975044;28;19929;-74
2021/12/03 04:34:31;;;;;;;;;;;20.00;39.00;;;;;;4992715;28;19925;-73
2021/12/03 04:36:56;;;;;;;;;;;19.90;39.00;;;;;;4991202;28;19941;-73
2021/12/03 04:39:21;;;;;;;;;;;19.80;39.30;;;;;;4992108;28;19984;-74
2021/12/03 04:41:47;;;;;;;;;;;19.60;39.40;;;;;;4999139;28;19971;-73
2021/12/03 04:44:12;;;;;;;;;;;19.50;39.60;;;;;;4999819;28;19914;-73
2021/12/03 04:46:38;;;;;;;;;;;19.40;39.80;;;;;;5014564;28;19968;-74
2021/12/03 04:49:03;;;;;;;;;;;19.30;39.80;;;;;;4997602;28;19980;-73
2021/12/03 04:51:29;;;;;;;;;;;19.30;39.90;;;;;;4999304;28;19928;-74
2021/12/03 04:53:54;;;;;;;;;;;19.20;39.90;;;;;;4981174;28;19918;-74
2021/12/03 04:56:20;;;;;;;;;;;19.30;40.60;;;;;;4999009;28;19914;-74
2021/12/03 04:58:45;;;;;;;;;;;19.40;39.80;;;;;;4990937;28;20382;-74
2021/12/03 05:01:10;;;;;;;;;;;19.50;40.30;;;;;;4986544;28;19965;-74
2021/12/03 05:03:37;;;;;;;;;;;19.50;39.40;;;;;;4997457;28;19921;-74
2021/12/03 05:06:03;;;;;;;;;;;19.60;40.00;;;;;;4982051;28;19921;-74
2021/12/03 05:08:29;;;;;;;;;;;19.70;39.10;;;;;;5013825;28;19949;-73
2021/12/03 05:10:55;;;;;;;;;;;19.80;38.90;;;;;;4998130;28;19914;-73
2021/12/03 05:13:21;;;;;;;;;;;19.90;38.90;;;;;;4980471;28;20043;-73
2021/12/03 05:15:47;;;;;;;;;;;19.90;38.80;;;;;;4998944;28;19954;-74
2021/12/03 05:18:13;;;;;;;;;;;20.00;38.70;;;;;;5000245;28;20017;-74
2021/12/03 05:20:39;;;;;;;;;;;20.00;38.50;;;;;;4997827;28;19933;-74
2021/12/03 05:23:04;;;;;;;;;;;20.00;38.50;;;;;;4997321;28;19914;-74
2021/12/03 05:25:30;;;;;;;;;;;20.00;38.50;;;;;;4998340;28;20333;-74
2021/12/03 05:27:56;;;;;;;;;;;20.00;38.50;;;;;;4996907;28;19922;-74
2021/12/03 05:30:21;;;;;;;;;;;20.00;38.50;;;;;;4997218;28;20491;-74
2021/12/03 05:32:46;;;;;;;;;;;20.00;38.60;;;;;;5013708;28;19914;-74
2021/12/03 05:35:12;;;;;;;;;;;19.90;38.50;;;;;;4997308;28;19913;-74
2021/12/03 05:37:37;;;;;;;;;;;19.90;38.60;;;;;;4997468;28;19968;-74
2021/12/03 05:40:03;;;;;;;;;;;19.90;38.60;;;;;;4997228;28;19941;-74
2021/12/03 05:42:29;;;;;;;;;;;19.90;38.60;;;;;;5013323;28;19990;-74
2021/12/03 05:44:54;;;;;;;;;;;19.90;38.60;;;;;;4997757;28;19941;-74
2021/12/03 05:47:20;;;;;;;;;;;19.90;38.60;;;;;;4998071;28;19929;-73
2021/12/03 05:49:46;;;;;;;;;;;19.90;38.60;;;;;;4997545;28;19914;-74
2021/12/03 05:52:11;;;;;;;;;;;19.90;38.50;;;;;;4998222;28;19921;-73
2021/12/03 05:54:37;;;;;;;;;;;19.90;38.60;;;;;;4995483;28;20441;-74
2021/12/03 05:57:02;;;;;;;;;;;19.80;38.60;;;;;;4993600;28;19917;-74
2021/12/03 05:59:28;;;;;;;;;;;19.80;38.60;;;;;;4996803;28;20409;-74
2021/12/03 06:01:53;;;;;;;;;;;19.80;38.70;;;;;;5009817;28;19959;-73
2021/12/03 06:04:18;;;;;;;;;;;19.80;38.80;;;;;;4994954;28;19924;-73
2021/12/03 06:06:44;;;;;;;;;;;19.80;38.80;;;;;;4995399;28;19944;-73
2021/12/03 06:09:09;;;;;;;;;;;19.70;38.70;;;;;;5003441;28;19953;-73
2021/12/03 06:11:35;;;;;;;;;;;19.70;38.70;;;;;;5007431;28;19910;-72
2021/12/03 06:14:00;;;;;;;;;;;19.70;38.70;;;;;;4995323;28;19921;-74
2021/12/03 06:16:26;;;;;;;;;;;19.80;38.80;;;;;;4993166;28;19914;-74
2021/12/03 06:18:51;;;;;;;;;;;19.70;38.70;;;;;;4993328;28;19913;-74
2021/12/03 06:21:17;;;;;;;;;;;19.70;38.70;;;;;;4994279;28;20310;-72
2021/12/03 06:23:42;;;;;;;;;;;19.80;38.80;;;;;;4993460;28;20671;-74
2021/12/03 06:26:08;;;;;;;;;;;19.80;38.80;;;;;;4977867;28;20056;-73
2021/12/03 06:28:33;;;;;;;;;;;19.80;38.70;;;;;;4993318;28;19937;-73
2021/12/03 06:30:59;;;;;;;;;;;19.90;38.60;;;;;;4993925;28;19910;-73
2021/12/03 06:33:25;;;;;;;;;;;19.90;38.60;;;;;;4993155;28;19928;-73
2021/12/03 06:35:50;;;;;;;;;;;19.80;38.50;;;;;;4993833;28;19910;-73
2021/12/03 06:38:16;;;;;;;;;;;19.90;38.70;;;;;;4993193;28;19934;-73
2021/12/03 06:40:41;;;;;;;;;;;19.90;38.60;;;;;;4992972;28;19910;-73
2021/12/03 06:43:07;;;;;;;;;;;19.90;38.60;;;;;;4994679;28;19913;-73
2021/12/03 06:45:32;;;;;;;;;;;19.80;38.50;;;;;;4992989;28;19929;-73
2021/12/03 06:47:57;;;;;;;;;;;19.80;38.50;;;;;;4993080;28;19921;-74
2021/12/03 06:50:24;;;;;;;;;;;19.90;38.60;;;;;;4994393;28;19921;-73
2021/12/03 06:52:57;;;;;;;;;;;19.80;38.60;;;;;;4993361;28;19914;-73
2021/12/03 06:55:22;;;;;;;;;;;19.80;38.60;;;;;;5008458;28;20355;-73
2021/12/03 06:57:48;;;;;;;;;;;19.70;38.70;;;;;;4994255;28;19929;-74
2021/12/03 07:00:14;;;;;;;;;;;19.70;38.80;;;;;;4982871;28;20001;-74
2021/12/03 07:02:40;;;;;;;;;;;19.60;38.70;;;;;;4993161;28;19922;-73
2021/12/03 07:05:06;;;;;;;;;;;19.60;38.80;;;;;;4992637;28;20434;-73
2021/12/03 07:07:31;;;;;;;;;;;19.60;38.70;;;;;;4976072;28;20335;-73
2021/12/03 07:09:57;;;;;;;;;;;19.60;38.70;;;;;;4997156;28;19953;-73
2021/12/03 07:12:23;;;;;;;;;;;19.60;38.70;;;;;;5000339;28;19983;-73
2021/12/03 07:14:48;;;;;;;;;;;19.60;38.70;;;;;;4992782;28;20022;-74
2021/12/03 07:17:13;;;;;;;;;;;19.60;38.70;;;;;;4992501;28;19971;-73
2021/12/03 07:19:39;;;;;;;;;;;19.60;38.70;;;;;;4992889;28;19948;-74
2021/12/03 07:22:04;;;;;;;;;;;19.60;38.70;;;;;;4985291;28;19917;-74
2021/12/03 07:24:30;;;;;;;;;;;19.60;38.70;;;;;;4992565;28;19925;-74
2021/12/03 07:26:55;;;;;;;;;;;19.60;38.70;;;;;;4992267;28;20064;-74
2021/12/03 07:29:21;;;;;;;;;;;19.60;38.70;;;;;;4993341;28;19918;-74
2021/12/03 07:31:46;;;;;;;;;;;19.60;38.60;;;;;;4987272;28;19992;-74
2021/12/03 07:34:14;;;;;;;;;;;19.60;38.60;;;;;;4993020;28;20394;-73
2021/12/03 07:36:39;;;;;;;;;;;19.70;38.70;;;;;;4993311;28;19917;-73
2021/12/03 07:39:05;;;;;;;;;;;19.70;38.60;;;;;;4992086;28;19914;-73
2021/12/03 07:41:30;;;;;;;;;;;19.80;38.60;;;;;;4976254;28;20008;-74
2021/12/03 07:43:56;;;;;;;;;;;19.80;38.60;;;;;;4993255;28;19914;-74
2021/12/03 07:46:21;;;;;;;;;;;19.80;38.50;;;;;;4992365;28;19918;-73
2021/12/03 07:48:47;;;;;;;;;;;19.90;38.50;;;;;;4992148;28;19910;-73
2021/12/03 07:51:16;;;;;;;;;;;19.90;38.50;;;;;;4993690;28;20084;-74
2021/12/03 07:53:42;;;;;;;;;;;19.90;38.40;;;;;;4991976;28;20330;-73
2021/12/03 07:56:08;;;;;;;;;;;20.00;38.40;;;;;;4975495;28;19956;-74
2021/12/03 07:58:34;;;;;;;;;;;20.00;38.40;;;;;;4991824;28;19914;-74
2021/12/03 08:00:59;;;;;;;;;;;20.00;38.40;;;;;;4990390;28;19972;-73
2021/12/03 08:03:25;;;;;;;;;;;20.00;38.30;;;;;;4990677;28;19980;-73
2021/12/03 08:05:50;;;;;;;;;;;20.00;38.50;;;;;;5001974;28;19926;-74
2021/12/03 08:08:22;;;;;;;;;;;19.90;38.50;;;;;;4984254;28;19926;-73
2021/12/03 08:10:49;;;;;;;;;;;19.90;38.60;;;;;;5003018;28;20642;-74
2021/12/03 08:13:14;;;;;;;;;;;19.90;38.60;;;;;;4991396;28;19917;-74
2021/12/03 08:15:40;;;;;;;;;;;19.90;38.70;;;;;;4974764;28;19913;-74
2021/12/03 08:18:05;;;;;;;;;;;19.90;38.70;;;;;;4996146;28;19910;-73
2021/12/03 08:20:31;;;;;;;;;;;19.90;38.90;;;;;;4972442;28;19967;-74
2021/12/03 08:22:56;;;;;;;;;;;19.90;38.90;;;;;;4989903;28;20318;-73
2021/12/03 08:25:22;;;;;;;;;;;19.80;38.80;;;;;;4995272;28;19925;-72
2021/12/03 08:27:47;;;;;;;;;;;19.90;38.90;;;;;;4991987;28;19917;-73
2021/12/03 08:30:13;;;;;;;;;;;20.00;39.00;;;;;;4974872;28;19921;-73
2021/12/03 08:32:39;;;;;;;;;;;20.10;38.80;;;;;;4991839;28;20302;-74
2021/12/03 08:35:05;;;;;;;;;;;20.30;38.60;;;;;;4991310;28;19937;-74
2021/12/03 08:37:30;;;;;;;;;;;20.50;38.40;;;;;;5007281;28;19918;-74
2021/12/03 08:39:56;;;;;;;;;;;20.70;38.20;;;;;;4992394;28;20033;-74
2021/12/03 08:42:21;;;;;;;;;;;20.80;38.00;;;;;;4991552;28;19921;-73
2021/12/03 08:44:47;;;;;;;;;;;20.90;37.80;;;;;;4974471;28;19914;-74
2021/12/03 08:47:12;;;;;;;;;;;21.10;37.80;;;;;;4995051;28;20182;-74
2021/12/03 08:50:00;;;;;;;;;;;21.10;37.50;;;;;;4991769;28;19956;-74
2021/12/03 08:55:27;;;;;;;;;;;21.30;37.30;;;;;;4963135;28;19966;-73
2021/12/03 08:57:54;;;;;;;;;;;21.40;37.20;;;;;;4970206;28;20353;-75
2021/12/03 09:00:19;;;;;;;;;;;21.40;37.30;;;;;;4969968;28;19910;-74
2021/12/03 09:02:45;;;;;;;;;;;21.40;37.30;;;;;;4990689;28;20503;-73
2021/12/03 09:05:10;;;;;;;;;;;21.50;37.30;;;;;;4989444;28;19920;-74
2021/12/03 09:07:36;;;;;;;;;;;21.50;38.00;;;;;;4977539;28;20382;-74
2021/12/03 09:10:03;;;;;;;;;;;21.60;37.30;;;;;;4991580;28;19921;-74
2021/12/03 09:12:29;;;;;;;;;;;21.60;37.20;;;;;;4974925;28;20013;-74
2021/12/03 09:15:01;;;;;;;;;;;21.60;37.10;;;;;;4988522;28;20012;-74
2021/12/03 09:17:37;;;;;;;;;;;21.70;37.10;;;;;;5002880;28;19914;-74
2021/12/03 09:20:17;;;;;;;;;;;21.70;37.20;;;;;;4994244;28;19945;-75
2021/12/03 09:22:49;;;;;;;;;;;21.70;37.20;;;;;;4996345;28;19914;-74
2021/12/03 09:25:18;;;;;;;;;;;21.70;37.10;;;;;;4989722;28;19955;-74
2021/12/03 09:27:43;;;;;;;;;;;21.70;37.00;;;;;;4991944;28;19918;-74
2021/12/03 09:30:10;;;;;;;;;;;21.80;37.10;;;;;;4993876;28;19914;-74
2021/12/03 09:32:35;;;;;;;;;;;21.80;37.10;;;;;;4997499;28;19941;-74
2021/12/03 09:35:01;;;;;;;;;;;21.80;37.00;;;;;;4995293;28;19914;-74
2021/12/03 09:37:27;;;;;;;;;;;21.80;37.00;;;;;;4993531;28;19920;-75
2021/12/03 09:39:52;;;;;;;;;;;21.80;36.90;;;;;;4993866;28;20000;-74
2021/12/03 09:42:19;;;;;;;;;;;21.80;36.90;;;;;;4993768;28;20001;-74
2021/12/03 09:44:45;;;;;;;;;;;21.90;37.10;;;;;;4993104;28;19922;-75
2021/12/03 09:47:11;;;;;;;;;;;21.90;37.10;;;;;;4994471;28;19922;-74
2021/12/03 09:49:38;;;;;;;;;;;21.90;37.10;;;;;;4973876;28;20375;-74
2021/12/03 09:52:17;;;;;;;;;;;21.80;37.00;;;;;;4994203;28;19921;-74
2021/12/03 09:57:11;;;;;;;;;;;21.90;37.00;;;;;;5000091;28;19922;-74
2021/12/03 10:02:34;;;;;;;;;;;21.90;37.10;;;;;;4985549;28;19961;-73
2021/12/03 10:11:13;;;;;;;;;;;21.90;36.90;;;;;;4995323;28;19952;-73
2021/12/03 10:13:37;;;;;;;;;;;22.00;37.00;;;;;;4992224;28;19932;-74
2021/12/03 10:16:20;;;;;;;;;;;22.00;37.10;;;;;;4996930;28;19918;-74
2021/12/03 10:18:52;;;;;;;;;;;21.90;37.10;;;;;;4993106;28;20012;-74
2021/12/03 10:22:05;;;;;;;;;;;21.90;37.20;;;;;;5000062;28;19914;-76
2021/12/03 10:27:45;;;;;;;;;;;22.00;37.30;;;;;;4992548;28;19948;-74
2021/12/03 10:33:58;;;;;;;;;;;22.00;37.30;;;;;;4994314;28;19929;-74
2021/12/03 10:36:29;;;;;;;;;;;22.00;37.30;;;;;;4996853;28;20290;-74
2021/12/03 10:42:00;;;;;;;;;;;22.00;37.20;;;;;;4997037;28;19924;-75
2021/12/03 10:47:23;;;;;;;;;;;22.00;37.10;;;;;;4989024;28;20407;-74
2021/12/03 10:50:06;;;;;;;;;;;22.00;37.20;;;;;;4999310;28;19953;-74
2021/12/03 10:53:30;;;;;;;;;;;22.00;37.10;;;;;;4992752;28;19964;-73
2021/12/03 11:04:24;;;;;;;;;;;22.00;37.30;;;;;;4993730;28;19929;-73
2021/12/03 11:28:17;;;;;;;;;;;22.10;37.10;;;;;;4999190;28;19988;-74
2021/12/03 11:30:50;;;;;;;;;;;22.10;37.00;;;;;;4992131;28;19959;-74
2021/12/03 11:39:11;;;;;;;;;;;22.10;37.00;;;;;;4999096;28;19961;-74
2021/12/03 11:58:22;;;;;;;;;;;22.20;37.00;;;;;;4988262;28;19952;-74
2021/12/03 12:57:29;;;;;;;;;;;22.40;36.70;;;;;;4992059;28;20001;-74
2021/12/03 13:05:42;;;;;;;;;;;22.30;36.70;;;;;;4995584;28;19989;-73
2021/12/03 13:18:27;;;;;;;;;;;22.40;36.80;;;;;;4995681;28;19936;-73
2021/12/03 13:35:57;;;;;;;;;;;22.40;36.60;;;;;;4994849;28;19921;-74
2021/12/03 14:44:20;;;;;;;;;;;22.60;36.10;;;;;;4992934;28;19928;-74
2021/12/03 14:49:42;;;;;;;;;;;22.60;36.00;;;;;;5007386;28;20152;-74
2021/12/03 14:52:16;;;;;;;;;;;22.60;36.20;;;;;;4992600;28;19914;-74
2021/12/03 14:54:48;;;;;;;;;;;22.60;35.80;;;;;;4991749;28;19940;-74
2021/12/03 15:00:15;;;;;;;;;;;22.60;36.00;;;;;;5002286;28;20056;-74
2021/12/03 15:03:07;;;;;;;;;;;22.60;35.90;;;;;;4993927;28;19913;-75
2021/12/03 15:08:29;;;;;;;;;;;22.60;35.60;;;;;;4989939;28;19933;-74
2021/12/03 15:17:09;;;;;;;;;;;22.60;35.80;;;;;;4991164;28;19925;-75
2021/12/03 15:29:50;;;;;;;;;;;22.70;35.80;;;;;;4998793;28;20017;-74
2021/12/03 15:32:29;;;;;;;;;;;22.70;35.80;;;;;;4992260;28;20298;-74
2021/12/03 15:57:02;;;;;;;;;;;22.70;35.70;;;;;;5001299;28;20003;-74
2021/12/03 16:05:07;;;;;;;;;;;22.80;35.80;;;;;;5005599;28;19924;-74
2021/12/03 16:10:18;;;;;;;;;;;22.80;35.80;;;;;;4996854;28;20320;-75
2021/12/03 16:13:09;;;;;;;;;;;22.80;35.80;;;;;;4991488;28;19963;-75
2021/12/03 16:20:57;;;;;;;;;;;22.80;35.60;;;;;;4992878;28;20016;-74
2021/12/03 16:26:05;;;;;;;;;;;22.80;35.80;;;;;;4992353;28;19924;-75
2021/12/03 16:45:10;;;;;;;;;;;22.80;35.80;;;;;;4989743;28;19983;-74
2021/12/03 16:47:54;;;;;;;;;;;22.90;35.90;;;;;;4997879;28;19925;-74
2021/12/03 16:53:00;;;;;;;;;;;22.90;35.90;;;;;;4998352;28;19925;-75
2021/12/03 16:55:26;;;;;;;;;;;22.80;35.80;;;;;;4999767;28;19918;-75
2021/12/03 16:57:53;;;;;;;;;;;22.90;35.90;;;;;;4975314;28;19913;-74
2021/12/03 17:03:02;;;;;;;;;;;22.90;35.90;;;;;;4991850;28;20290;-75
2021/12/03 17:13:54;;;;;;;;;;;22.80;35.80;;;;;;4990741;28;19977;-75
2021/12/03 17:48:23;;;;;;;;;;;23.00;35.90;;;;;;4991881;28;19914;-74
2021/12/03 17:56:06;;;;;;;;;;;22.90;35.90;;;;;;4994983;28;19909;-74
2021/12/03 17:58:35;;;;;;;;;;;22.90;35.90;;;;;;4994932;28;20483;-74
2021/12/03 18:01:25;;;;;;;;;;;22.80;35.80;;;;;;4994229;28;19914;-74
2021/12/03 18:04:08;;;;;;;;;;;22.80;35.90;;;;;;4981092;28;19925;-74
2021/12/03 18:06:56;;;;;;;;;;;22.70;36.00;;;;;;4994740;28;20259;-74
2021/12/03 18:47:18;;;;;;;;;;;22.30;38.90;;;;;;4989229;28;19957;-74
2021/12/03 18:55:48;;;;;;;;;;;22.20;38.80;;;;;;4990491;28;20004;-74
2021/12/03 18:57:57;;;;;;;;;;;22.20;38.80;;;;;;4980636;28;19916;-74
2021/12/03 19:00:26;;;;;;;;;;;22.20;38.80;;;;;;4990319;28;19921;-74
2021/12/03 19:02:54;;;;;;;;;;;22.20;38.80;;;;;;4982891;28;20024;-74
2021/12/03 19:05:30;;;;;;;;;;;22.20;38.80;;;;;;5005841;28;19960;-73
2021/12/03 19:08:06;;;;;;;;;;;22.10;38.70;;;;;;4975153;28;19922;-74
2021/12/03 19:10:34;;;;;;;;;;;22.10;38.80;;;;;;4986140;28;19914;-74
2021/12/03 19:13:03;;;;;;;;;;;22.10;38.80;;;;;;5000461;28;19913;-74
2021/12/03 19:15:30;;;;;;;;;;;22.10;38.80;;;;;;5004507;28;19922;-74
2021/12/03 19:17:59;;;;;;;;;;;22.10;38.80;;;;;;4990588;28;20103;-73
2021/12/03 19:20:28;;;;;;;;;;;22.10;38.80;;;;;;4988571;28;19913;-74
2021/12/03 19:22:53;;;;;;;;;;;22.10;38.80;;;;;;4987948;28;20033;-73
2021/12/03 19:25:19;;;;;;;;;;;22.10;38.80;;;;;;4988811;28;20502;-74
2021/12/03 19:27:44;;;;;;;;;;;22.10;38.80;;;;;;4985650;28;19921;-74
2021/12/03 19:30:10;;;;;;;;;;;22.10;39.10;;;;;;4991820;28;19924;-74
2021/12/03 19:32:35;;;;;;;;;;;22.10;39.20;;;;;;4975785;28;19914;-74
2021/12/03 19:35:01;;;;;;;;;;;22.10;39.10;;;;;;4990020;28;20542;-74
2021/12/03 19:37:28;;;;;;;;;;;22.20;39.20;;;;;;4981916;28;19914;-73
2021/12/03 19:39:59;;;;;;;;;;;22.30;39.20;;;;;;4982080;28;19922;-74
2021/12/03 19:42:31;;;;;;;;;;;22.30;38.90;;;;;;4992654;28;19964;-74
2021/12/03 19:45:00;;;;;;;;;;;22.40;38.80;;;;;;4995935;28;19936;-75
2021/12/03 19:47:31;;;;;;;;;;;22.40;38.70;;;;;;4983299;28;19917;-74
2021/12/03 19:50:17;;;;;;;;;;;22.40;38.70;;;;;;4988636;28;19914;-75
2021/12/03 19:52:53;;;;;;;;;;;22.50;38.80;;;;;;5000633;28;19957;-75
2021/12/03 19:55:18;;;;;;;;;;;22.50;39.00;;;;;;4993182;28;19932;-74
2021/12/03 19:57:44;;;;;;;;;;;22.50;38.90;;;;;;4968974;28;19918;-75
2021/12/03 20:00:10;;;;;;;;;;;22.50;38.90;;;;;;4998873;28;19918;-75
2021/12/03 20:02:35;;;;;;;;;;;22.50;38.90;;;;;;5001272;28;19963;-74
2021/12/03 20:05:01;;;;;;;;;;;22.50;38.90;;;;;;4991725;28;19924;-74
2021/12/03 20:07:26;;;;;;;;;;;22.50;39.00;;;;;;4985909;28;19921;-75
2021/12/03 20:10:09;;;;;;;;;;;22.50;38.80;;;;;;4997318;28;20340;-74
2021/12/03 20:12:35;;;;;;;;;;;22.50;38.80;;;;;;4987257;28;19960;-73
2021/12/03 20:15:03;;;;;;;;;;;22.50;38.80;;;;;;4980636;28;20350;-74
2021/12/03 20:17:34;;;;;;;;;;;22.50;38.80;;;;;;4989412;28;19958;-74
2021/12/03 20:20:02;;;;;;;;;;;22.50;38.80;;;;;;4984548;28;19918;-74
2021/12/03 20:22:51;;;;;;;;;;;22.50;38.80;;;;;;5007301;28;19914;-74
2021/12/03 20:25:31;;;;;;;;;;;22.50;38.70;;;;;;5005343;28;19918;-74
2021/12/03 20:28:02;;;;;;;;;;;22.50;38.80;;;;;;4972821;28;20549;-74
2021/12/03 20:30:37;;;;;;;;;;;22.50;39.40;;;;;;4994301;28;19913;-73
2021/12/03 20:33:40;;;;;;;;;;;22.50;38.70;;;;;;4991834;28;19917;-74
2021/12/03 20:38:45;;;;;;;;;;;22.50;38.80;;;;;;4990047;28;19921;-74
2021/12/03 20:41:16;;;;;;;;;;;22.50;38.80;;;;;;4982739;28;19921;-75
2021/12/03 20:49:29;;;;;;;;;;;22.50;38.70;;;;;;4996043;28;19918;-74
2021/12/03 21:07:57;;;;;;;;;;;22.50;39.30;;;;;;4983671;28;20043;-75
2021/12/03 21:10:40;;;;;;;;;;;22.50;38.50;;;;;;4991522;28;19913;-75
2021/12/03 21:13:10;;;;;;;;;;;22.50;38.50;;;;;;4989824;28;20009;-75
2021/12/03 21:16:01;;;;;;;;;;;22.50;38.50;;;;;;4993020;28;19925;-75
2021/12/03 21:18:33;;;;;;;;;;;22.50;38.50;;;;;;4991143;28;19921;-75
2021/12/03 21:23:31;;;;;;;;;;;22.50;38.50;;;;;;4996720;28;19960;-74
2021/12/03 21:25:58;;;;;;;;;;;22.50;38.40;;;;;;4983755;28;19921;-74
2021/12/03 21:30:55;;;;;;;;;;;22.60;38.50;;;;;;4993784;28;19961;-75
2021/12/03 21:41:21;;;;;;;;;;;22.60;38.40;;;;;;5001459;28;20346;-74
2021/12/03 21:43:48;;;;;;;;;;;22.60;38.40;;;;;;4977278;28;19918;-74
2021/12/03 21:46:14;;;;;;;;;;;22.60;38.30;;;;;;4992803;28;20357;-74